sensor_id;sensor_type;location;lat;lon;timestamp;temperature;humidity
48212;DHT22;34000;48.772;9.162;2022-10-14T00:01:16;17.30;68.90
48212;DHT22;34000;48.772;9.162;2022-10-14T00:03:43;17.30;68.80
48212;DHT22;34000;48.772;9.162;2022-10-14T00:06:15;17.30;68.80
48212;DHT22;34000;48.772;9.162;2022-10-14T00:08:42;17.30;68.80
48212;DHT22;34000;48.772;9.162;2022-10-14T00:11:10;17.30;68.70
48212;DHT22;34000;48.772;9.162;2022-10-14T00:13:37;17.30;68.70
48212;DHT22;34000;48.772;9.162;2022-10-14T00:16:03;17.30;68.60
48212;DHT22;34000;48.772;9.162;2022-10-14T00:18:30;17.30;68.60
48212;DHT22;34000;48.772;9.162;2022-10-14T00:20:56;17.30;68.60
48212;DHT22;34000;48.772;9.162;2022-10-14T00:23:23;17.30;68.40
48212;DHT22;34000;48.772;9.162;2022-10-14T00:25:49;17.30;68.30
48212;DHT22;34000;48.772;9.162;2022-10-14T00:28:14;17.20;68.40
48212;DHT22;34000;48.772;9.162;2022-10-14T00:30:40;17.20;68.50
48212;DHT22;34000;48.772;9.162;2022-10-14T00:33:06;17.20;68.50
48212;DHT22;34000;48.772;9.162;2022-10-14T00:35:32;17.20;68.50
48212;DHT22;34000;48.772;9.162;2022-10-14T00:37:57;17.20;69.10
48212;DHT22;34000;48.772;9.162;2022-10-14T00:40:24;17.30;68.60
48212;DHT22;34000;48.772;9.162;2022-10-14T00:42:50;17.20;68.50
48212;DHT22;34000;48.772;9.162;2022-10-14T00:45:20;17.30;68.50
48212;DHT22;34000;48.772;9.162;2022-10-14T00:47:47;17.30;68.50
48212;DHT22;34000;48.772;9.162;2022-10-14T00:50:15;17.30;68.40
48212;DHT22;34000;48.772;9.162;2022-10-14T00:52:42;17.30;68.20
48212;DHT22;34000;48.772;9.162;2022-10-14T00:55:15;17.20;68.10
48212;DHT22;34000;48.772;9.162;2022-10-14T00:57:41;17.20;68.10
48212;DHT22;34000;48.772;9.162;2022-10-14T01:00:10;17.20;68.10
48212;DHT22;34000;48.772;9.162;2022-10-14T01:02:36;17.10;68.00
48212;DHT22;34000;48.772;9.162;2022-10-14T01:05:03;17.10;68.10
48212;DHT22;34000;48.772;9.162;2022-10-14T01:10:54;17.00;68.10
48212;DHT22;34000;48.772;9.162;2022-10-14T01:13:24;17.00;68.10
48212;DHT22;34000;48.772;9.162;2022-10-14T01:16:15;16.90;68.10
48212;DHT22;34000;48.772;9.162;2022-10-14T01:18:56;16.90;68.20
48212;DHT22;34000;48.772;9.162;2022-10-14T01:21:42;16.90;68.20
48212;DHT22;34000;48.772;9.162;2022-10-14T01:24:41;16.90;68.20
48212;DHT22;34000;48.772;9.162;2022-10-14T01:27:19;16.90;68.30
48212;DHT22;34000;48.772;9.162;2022-10-14T01:30:07;16.90;68.30
48212;DHT22;34000;48.772;9.162;2022-10-14T01:32:54;16.90;68.30
48212;DHT22;34000;48.772;9.162;2022-10-14T01:38:38;17.00;68.20
48212;DHT22;34000;48.772;9.162;2022-10-14T01:41:16;17.00;68.20
48212;DHT22;34000;48.772;9.162;2022-10-14T01:43:44;17.00;68.20
48212;DHT22;34000;48.772;9.162;2022-10-14T01:46:12;17.00;68.30
48212;DHT22;34000;48.772;9.162;2022-10-14T01:48:42;17.00;68.90
48212;DHT22;34000;48.772;9.162;2022-10-14T01:51:13;17.00;68.30
48212;DHT22;34000;48.772;9.162;2022-10-14T01:53:43;17.00;68.30
48212;DHT22;34000;48.772;9.162;2022-10-14T01:56:11;17.00;68.30
48212;DHT22;34000;48.772;9.162;2022-10-14T01:58:38;17.00;68.40
48212;DHT22;34000;48.772;9.162;2022-10-14T02:01:07;17.00;68.30
48212;DHT22;34000;48.772;9.162;2022-10-14T02:03:45;17.00;68.40
48212;DHT22;34000;48.772;9.162;2022-10-14T02:06:23;17.00;69.00
48212;DHT22;34000;48.772;9.162;2022-10-14T02:18:25;17.00;68.60
48212;DHT22;34000;48.772;9.162;2022-10-14T02:21:47;17.10;68.70
48212;DHT22;34000;48.772;9.162;2022-10-14T02:26:34;17.10;68.60
48212;DHT22;34000;48.772;9.162;2022-10-14T02:29:00;17.10;68.50
48212;DHT22;34000;48.772;9.162;2022-10-14T02:31:27;17.10;68.60
48212;DHT22;34000;48.772;9.162;2022-10-14T02:33:57;17.10;68.70
48212;DHT22;34000;48.772;9.162;2022-10-14T02:36:26;17.00;68.80
48212;DHT22;34000;48.772;9.162;2022-10-14T02:38:55;17.00;69.00
48212;DHT22;34000;48.772;9.162;2022-10-14T02:41:24;16.90;69.00
48212;DHT22;34000;48.772;9.162;2022-10-14T02:43:51;16.90;69.20
48212;DHT22;34000;48.772;9.162;2022-10-14T02:46:21;16.90;69.30
48212;DHT22;34000;48.772;9.162;2022-10-14T02:48:48;16.90;69.40
48212;DHT22;34000;48.772;9.162;2022-10-14T02:51:14;16.90;69.40
48212;DHT22;34000;48.772;9.162;2022-10-14T02:53:39;16.90;69.50
48212;DHT22;34000;48.772;9.162;2022-10-14T02:56:06;16.90;69.60
48212;DHT22;34000;48.772;9.162;2022-10-14T02:58:31;16.90;69.70
48212;DHT22;34000;48.772;9.162;2022-10-14T03:00:57;16.90;69.70
48212;DHT22;34000;48.772;9.162;2022-10-14T03:03:23;16.90;69.80
48212;DHT22;34000;48.772;9.162;2022-10-14T03:05:48;16.90;69.80
48212;DHT22;34000;48.772;9.162;2022-10-14T03:08:14;16.90;69.80
48212;DHT22;34000;48.772;9.162;2022-10-14T03:10:40;16.90;69.90
48212;DHT22;34000;48.772;9.162;2022-10-14T03:13:05;16.90;69.90
48212;DHT22;34000;48.772;9.162;2022-10-14T03:15:31;16.90;69.80
48212;DHT22;34000;48.772;9.162;2022-10-14T03:17:56;16.90;69.80
48212;DHT22;34000;48.772;9.162;2022-10-14T03:20:22;16.90;69.90
48212;DHT22;34000;48.772;9.162;2022-10-14T03:22:47;16.90;69.90
48212;DHT22;34000;48.772;9.162;2022-10-14T03:25:13;16.90;69.90
48212;DHT22;34000;48.772;9.162;2022-10-14T03:27:39;16.90;70.00
48212;DHT22;34000;48.772;9.162;2022-10-14T03:30:05;16.90;70.10
48212;DHT22;34000;48.772;9.162;2022-10-14T03:32:31;16.90;70.80
48212;DHT22;34000;48.772;9.162;2022-10-14T03:34:56;16.90;70.30
48212;DHT22;34000;48.772;9.162;2022-10-14T03:37:22;16.90;70.90
48212;DHT22;34000;48.772;9.162;2022-10-14T03:39:47;16.90;70.40
48212;DHT22;34000;48.772;9.162;2022-10-14T03:42:13;16.90;70.50
48212;DHT22;34000;48.772;9.162;2022-10-14T03:44:39;16.90;70.50
48212;DHT22;34000;48.772;9.162;2022-10-14T03:47:04;16.80;70.40
48212;DHT22;34000;48.772;9.162;2022-10-14T03:49:30;16.90;70.50
48212;DHT22;34000;48.772;9.162;2022-10-14T03:51:56;16.80;70.40
48212;DHT22;34000;48.772;9.162;2022-10-14T03:54:21;16.80;70.50
48212;DHT22;34000;48.772;9.162;2022-10-14T03:56:47;16.80;70.60
48212;DHT22;34000;48.772;9.162;2022-10-14T03:59:12;16.70;70.60
48212;DHT22;34000;48.772;9.162;2022-10-14T04:01:38;16.70;70.70
48212;DHT22;34000;48.772;9.162;2022-10-14T04:04:03;16.70;70.80
48212;DHT22;34000;48.772;9.162;2022-10-14T04:06:29;16.60;70.90
48212;DHT22;34000;48.772;9.162;2022-10-14T04:08:55;16.60;71.00
48212;DHT22;34000;48.772;9.162;2022-10-14T04:11:21;16.60;71.00
48212;DHT22;34000;48.772;9.162;2022-10-14T04:13:46;16.60;71.00
48212;DHT22;34000;48.772;9.162;2022-10-14T04:16:12;16.60;71.10
48212;DHT22;34000;48.772;9.162;2022-10-14T04:18:38;16.60;71.20
48212;DHT22;34000;48.772;9.162;2022-10-14T04:21:10;16.60;71.20
48212;DHT22;34000;48.772;9.162;2022-10-14T04:23:36;16.60;71.20
48212;DHT22;34000;48.772;9.162;2022-10-14T04:26:03;16.60;71.20
48212;DHT22;34000;48.772;9.162;2022-10-14T04:28:30;16.60;71.20
48212;DHT22;34000;48.772;9.162;2022-10-14T04:30:56;16.60;71.30
48212;DHT22;34000;48.772;9.162;2022-10-14T04:33:21;16.60;71.50
48212;DHT22;34000;48.772;9.162;2022-10-14T04:35:47;16.60;71.50
48212;DHT22;34000;48.772;9.162;2022-10-14T04:38:12;16.60;71.40
48212;DHT22;34000;48.772;9.162;2022-10-14T04:40:38;16.60;71.40
48212;DHT22;34000;48.772;9.162;2022-10-14T04:43:04;16.70;71.40
48212;DHT22;34000;48.772;9.162;2022-10-14T04:45:30;16.60;71.30
48212;DHT22;34000;48.772;9.162;2022-10-14T04:47:56;16.60;71.30
48212;DHT22;34000;48.772;9.162;2022-10-14T04:50:21;16.60;71.40
48212;DHT22;34000;48.772;9.162;2022-10-14T04:52:47;16.60;71.30
48212;DHT22;34000;48.772;9.162;2022-10-14T04:55:13;16.60;71.40
48212;DHT22;34000;48.772;9.162;2022-10-14T04:57:39;16.60;71.40
48212;DHT22;34000;48.772;9.162;2022-10-14T05:00:08;16.60;71.40
48212;DHT22;34000;48.772;9.162;2022-10-14T05:02:34;16.60;71.40
48212;DHT22;34000;48.772;9.162;2022-10-14T05:04:59;16.70;71.40
48212;DHT22;34000;48.772;9.162;2022-10-14T05:07:25;16.60;71.40
48212;DHT22;34000;48.772;9.162;2022-10-14T05:09:50;16.60;71.40
48212;DHT22;34000;48.772;9.162;2022-10-14T05:12:16;16.60;71.50
48212;DHT22;34000;48.772;9.162;2022-10-14T05:14:42;16.60;71.50
48212;DHT22;34000;48.772;9.162;2022-10-14T05:17:07;16.60;71.50
48212;DHT22;34000;48.772;9.162;2022-10-14T05:19:33;16.60;71.60
48212;DHT22;34000;48.772;9.162;2022-10-14T05:21:58;16.60;71.70
48212;DHT22;34000;48.772;9.162;2022-10-14T05:24:24;16.60;71.70
48212;DHT22;34000;48.772;9.162;2022-10-14T05:26:50;16.60;71.60
48212;DHT22;34000;48.772;9.162;2022-10-14T05:29:15;16.60;71.50
48212;DHT22;34000;48.772;9.162;2022-10-14T05:31:41;16.60;71.60
48212;DHT22;34000;48.772;9.162;2022-10-14T05:34:07;16.70;71.60
48212;DHT22;34000;48.772;9.162;2022-10-14T05:36:32;16.60;71.50
48212;DHT22;34000;48.772;9.162;2022-10-14T05:38:58;16.60;71.50
48212;DHT22;34000;48.772;9.162;2022-10-14T05:41:24;16.60;71.50
48212;DHT22;34000;48.772;9.162;2022-10-14T05:43:50;16.60;71.60
48212;DHT22;34000;48.772;9.162;2022-10-14T05:46:16;16.60;71.60
48212;DHT22;34000;48.772;9.162;2022-10-14T05:48:41;16.60;71.70
48212;DHT22;34000;48.772;9.162;2022-10-14T05:51:07;16.60;71.70
48212;DHT22;34000;48.772;9.162;2022-10-14T05:53:33;16.60;71.70
48212;DHT22;34000;48.772;9.162;2022-10-14T05:56:06;16.60;71.60
48212;DHT22;34000;48.772;9.162;2022-10-14T05:58:32;16.70;71.60
48212;DHT22;34000;48.772;9.162;2022-10-14T06:00:59;16.70;71.50
48212;DHT22;34000;48.772;9.162;2022-10-14T06:03:25;16.70;71.50
48212;DHT22;34000;48.772;9.162;2022-10-14T06:05:50;16.70;71.50
48212;DHT22;34000;48.772;9.162;2022-10-14T06:08:16;16.70;71.40
48212;DHT22;34000;48.772;9.162;2022-10-14T06:10:41;16.70;71.40
48212;DHT22;34000;48.772;9.162;2022-10-14T06:13:07;16.80;72.00
48212;DHT22;34000;48.772;9.162;2022-10-14T06:15:34;16.90;71.40
48212;DHT22;34000;48.772;9.162;2022-10-14T06:18:00;16.90;71.20
48212;DHT22;34000;48.772;9.162;2022-10-14T06:20:25;16.90;71.10
48212;DHT22;34000;48.772;9.162;2022-10-14T06:22:51;16.90;71.10
48212;DHT22;34000;48.772;9.162;2022-10-14T06:25:16;16.90;71.20
48212;DHT22;34000;48.772;9.162;2022-10-14T06:27:42;16.90;71.20
48212;DHT22;34000;48.772;9.162;2022-10-14T06:30:08;16.90;71.10
48212;DHT22;34000;48.772;9.162;2022-10-14T06:32:34;17.00;71.00
48212;DHT22;34000;48.772;9.162;2022-10-14T06:34:59;17.00;70.90
48212;DHT22;34000;48.772;9.162;2022-10-14T06:37:25;17.00;71.50
48212;DHT22;34000;48.772;9.162;2022-10-14T06:39:50;17.00;70.90
48212;DHT22;34000;48.772;9.162;2022-10-14T06:42:16;17.00;70.80
48212;DHT22;34000;48.772;9.162;2022-10-14T06:44:41;17.10;70.80
48212;DHT22;34000;48.772;9.162;2022-10-14T06:47:07;17.00;70.70
48212;DHT22;34000;48.772;9.162;2022-10-14T06:49:33;17.00;70.70
48212;DHT22;34000;48.772;9.162;2022-10-14T06:51:58;17.00;70.80
48212;DHT22;34000;48.772;9.162;2022-10-14T06:54:24;17.00;70.80
48212;DHT22;34000;48.772;9.162;2022-10-14T06:56:50;17.00;70.80
48212;DHT22;34000;48.772;9.162;2022-10-14T06:59:15;17.10;70.80
48212;DHT22;34000;48.772;9.162;2022-10-14T07:01:41;17.10;70.70
48212;DHT22;34000;48.772;9.162;2022-10-14T07:04:06;17.10;70.70
48212;DHT22;34000;48.772;9.162;2022-10-14T07:06:32;17.20;70.70
48212;DHT22;34000;48.772;9.162;2022-10-14T07:08:58;17.20;70.70
48212;DHT22;34000;48.772;9.162;2022-10-14T07:11:23;17.30;70.60
48212;DHT22;34000;48.772;9.162;2022-10-14T07:13:49;17.30;70.50
48212;DHT22;34000;48.772;9.162;2022-10-14T07:16:14;17.30;70.40
48212;DHT22;34000;48.772;9.162;2022-10-14T07:18:40;17.20;70.30
48212;DHT22;34000;48.772;9.162;2022-10-14T07:21:06;17.30;70.40
48212;DHT22;34000;48.772;9.162;2022-10-14T07:23:31;17.30;70.40
48212;DHT22;34000;48.772;9.162;2022-10-14T07:25:58;17.30;70.40
48212;DHT22;34000;48.772;9.162;2022-10-14T07:28:24;17.30;70.40
48212;DHT22;34000;48.772;9.162;2022-10-14T07:31:07;17.30;70.30
48212;DHT22;34000;48.772;9.162;2022-10-14T07:33:35;17.40;70.30
48212;DHT22;34000;48.772;9.162;2022-10-14T07:36:05;17.60;70.10
48212;DHT22;34000;48.772;9.162;2022-10-14T07:38:31;17.70;69.90
48212;DHT22;34000;48.772;9.162;2022-10-14T07:40:59;17.80;69.60
48212;DHT22;34000;48.772;9.162;2022-10-14T07:43:25;18.00;69.50
48212;DHT22;34000;48.772;9.162;2022-10-14T07:45:50;18.10;69.10
48212;DHT22;34000;48.772;9.162;2022-10-14T07:48:16;18.30;68.80
48212;DHT22;34000;48.772;9.162;2022-10-14T07:50:42;18.40;68.40
48212;DHT22;34000;48.772;9.162;2022-10-14T07:53:07;18.40;68.10
48212;DHT22;34000;48.772;9.162;2022-10-14T07:55:33;18.30;68.00
48212;DHT22;34000;48.772;9.162;2022-10-14T07:57:58;18.30;68.10
48212;DHT22;34000;48.772;9.162;2022-10-14T08:00:24;18.30;68.10
48212;DHT22;34000;48.772;9.162;2022-10-14T08:02:49;18.40;68.10
48212;DHT22;34000;48.772;9.162;2022-10-14T08:05:15;18.50;68.00
48212;DHT22;34000;48.772;9.162;2022-10-14T08:07:41;18.50;67.80
48212;DHT22;34000;48.772;9.162;2022-10-14T08:10:07;18.60;67.70
48212;DHT22;34000;48.772;9.162;2022-10-14T08:12:33;18.70;67.50
48212;DHT22;34000;48.772;9.162;2022-10-14T08:14:58;18.70;67.30
48212;DHT22;34000;48.772;9.162;2022-10-14T08:17:24;18.70;67.10
48212;DHT22;34000;48.772;9.162;2022-10-14T08:19:50;18.70;67.60
48212;DHT22;34000;48.772;9.162;2022-10-14T08:22:17;18.70;66.90
48212;DHT22;34000;48.772;9.162;2022-10-14T08:24:42;18.80;66.80
48212;DHT22;34000;48.772;9.162;2022-10-14T08:27:09;18.80;66.70
48212;DHT22;34000;48.772;9.162;2022-10-14T08:29:34;18.80;66.60
48212;DHT22;34000;48.772;9.162;2022-10-14T08:32:00;18.80;66.40
48212;DHT22;34000;48.772;9.162;2022-10-14T08:34:25;18.90;66.20
48212;DHT22;34000;48.772;9.162;2022-10-14T08:36:52;18.90;66.10
48212;DHT22;34000;48.772;9.162;2022-10-14T08:39:18;19.00;66.00
48212;DHT22;34000;48.772;9.162;2022-10-14T08:45:29;19.10;65.50
48212;DHT22;34000;48.772;9.162;2022-10-14T08:47:38;19.30;65.90
48212;DHT22;34000;48.772;9.162;2022-10-14T08:50:26;19.30;65.00
48212;DHT22;34000;48.772;9.162;2022-10-14T08:52:56;19.40;64.80
48212;DHT22;34000;48.772;9.162;2022-10-14T08:55:43;19.60;64.60
48212;DHT22;34000;48.772;9.162;2022-10-14T09:00:48;19.80;63.60
48212;DHT22;34000;48.772;9.162;2022-10-14T09:03:21;19.80;63.20
48212;DHT22;34000;48.772;9.162;2022-10-14T09:05:57;19.80;63.10
48212;DHT22;34000;48.772;9.162;2022-10-14T09:08:30;19.70;62.60
48212;DHT22;34000;48.772;9.162;2022-10-14T09:10:57;19.60;62.80
48212;DHT22;34000;48.772;9.162;2022-10-14T09:13:40;19.60;63.10
48212;DHT22;34000;48.772;9.162;2022-10-14T09:16:07;19.60;63.10
48212;DHT22;34000;48.772;9.162;2022-10-14T09:18:44;19.70;63.10
48212;DHT22;34000;48.772;9.162;2022-10-14T09:21:28;19.80;62.50
48212;DHT22;34000;48.772;9.162;2022-10-14T09:24:13;19.90;62.20
48212;DHT22;34000;48.772;9.162;2022-10-14T09:26:41;19.80;62.00
48212;DHT22;34000;48.772;9.162;2022-10-14T09:31:49;19.90;62.00
48212;DHT22;34000;48.772;9.162;2022-10-14T09:34:22;20.00;62.10
48212;DHT22;34000;48.772;9.162;2022-10-14T09:36:50;20.00;61.90
48212;DHT22;34000;48.772;9.162;2022-10-14T09:39:17;20.10;61.70
48212;DHT22;34000;48.772;9.162;2022-10-14T09:41:45;20.20;61.50
48212;DHT22;34000;48.772;9.162;2022-10-14T09:44:20;20.20;61.10
48212;DHT22;34000;48.772;9.162;2022-10-14T09:47:10;20.30;60.90
48212;DHT22;34000;48.772;9.162;2022-10-14T09:49:42;20.40;60.70
48212;DHT22;34000;48.772;9.162;2022-10-14T09:52:30;20.50;60.60
48212;DHT22;34000;48.772;9.162;2022-10-14T09:54:58;20.60;60.30
48212;DHT22;34000;48.772;9.162;2022-10-14T09:57:25;20.60;60.30
48212;DHT22;34000;48.772;9.162;2022-10-14T09:59:56;20.70;60.20
48212;DHT22;34000;48.772;9.162;2022-10-14T10:02:49;20.80;59.90
48212;DHT22;34000;48.772;9.162;2022-10-14T10:05:24;21.00;59.70
48212;DHT22;34000;48.772;9.162;2022-10-14T10:08:16;21.20;59.20
48212;DHT22;34000;48.772;9.162;2022-10-14T10:10:59;21.60;58.90
48212;DHT22;34000;48.772;9.162;2022-10-14T10:13:44;22.00;57.90
48212;DHT22;34000;48.772;9.162;2022-10-14T10:16:28;22.30;57.30
48212;DHT22;34000;48.772;9.162;2022-10-14T10:18:56;22.40;56.90
48212;DHT22;34000;48.772;9.162;2022-10-14T10:21:27;22.50;56.90
48212;DHT22;34000;48.772;9.162;2022-10-14T10:23:59;22.60;56.90
48212;DHT22;34000;48.772;9.162;2022-10-14T10:26:29;22.50;56.20
48212;DHT22;34000;48.772;9.162;2022-10-14T10:29:03;22.40;56.20
48212;DHT22;34000;48.772;9.162;2022-10-14T10:34:28;22.30;56.60
48212;DHT22;34000;48.772;9.162;2022-10-14T10:36:52;22.20;56.50
48212;DHT22;34000;48.772;9.162;2022-10-14T10:50:50;21.60;56.90
48212;DHT22;34000;48.772;9.162;2022-10-14T10:56:18;21.30;56.80
48212;DHT22;34000;48.772;9.162;2022-10-14T11:23:41;20.00;59.90
48212;DHT22;34000;48.772;9.162;2022-10-14T11:26:19;19.80;60.80
48212;DHT22;34000;48.772;9.162;2022-10-14T11:28:50;19.60;61.60
48212;DHT22;34000;48.772;9.162;2022-10-14T11:31:39;19.60;62.10
48212;DHT22;34000;48.772;9.162;2022-10-14T11:34:29;19.60;62.40
48212;DHT22;34000;48.772;9.162;2022-10-14T11:37:22;19.60;62.50
48212;DHT22;34000;48.772;9.162;2022-10-14T11:40:06;19.70;62.60
48212;DHT22;34000;48.772;9.162;2022-10-14T11:42:56;19.80;62.50
48212;DHT22;34000;48.772;9.162;2022-10-14T11:45:51;19.80;62.40
48212;DHT22;34000;48.772;9.162;2022-10-14T11:48:37;19.80;62.70
48212;DHT22;34000;48.772;9.162;2022-10-14T11:51:29;20.00;62.60
48212;DHT22;34000;48.772;9.162;2022-10-14T11:54:10;20.20;62.40
48212;DHT22;34000;48.772;9.162;2022-10-14T11:56:59;20.50;61.90
48212;DHT22;34000;48.772;9.162;2022-10-14T12:02:36;21.10;60.80
48212;DHT22;34000;48.772;9.162;2022-10-14T12:08:20;21.50;59.70
48212;DHT22;34000;48.772;9.162;2022-10-14T12:13:45;21.60;59.50
48212;DHT22;34000;48.772;9.162;2022-10-14T12:16:14;21.60;59.50
48212;DHT22;34000;48.772;9.162;2022-10-14T12:18:42;21.50;59.30
48212;DHT22;34000;48.772;9.162;2022-10-14T12:21:23;21.50;59.50
48212;DHT22;34000;48.772;9.162;2022-10-14T12:24:18;21.50;59.40
48212;DHT22;34000;48.772;9.162;2022-10-14T12:26:53;21.50;59.50
48212;DHT22;34000;48.772;9.162;2022-10-14T12:29:22;21.60;59.20
48212;DHT22;34000;48.772;9.162;2022-10-14T12:34:42;21.80;58.80
48212;DHT22;34000;48.772;9.162;2022-10-14T12:45:18;22.00;57.70
48212;DHT22;34000;48.772;9.162;2022-10-14T12:47:44;21.90;57.60
48212;DHT22;34000;48.772;9.162;2022-10-14T12:52:39;21.90;58.10
48212;DHT22;34000;48.772;9.162;2022-10-14T12:57:41;21.80;57.90
48212;DHT22;34000;48.772;9.162;2022-10-14T13:02:46;21.60;58.00
48212;DHT22;34000;48.772;9.162;2022-10-14T13:05:42;21.60;59.00
48212;DHT22;34000;48.772;9.162;2022-10-14T13:10:43;21.30;58.70
48212;DHT22;34000;48.772;9.162;2022-10-14T13:16:03;21.30;59.00
48212;DHT22;34000;48.772;9.162;2022-10-14T13:21:07;21.30;58.70
48212;DHT22;34000;48.772;9.162;2022-10-14T13:23:38;21.40;58.80
48212;DHT22;34000;48.772;9.162;2022-10-14T13:26:39;21.40;58.70
48212;DHT22;34000;48.772;9.162;2022-10-14T13:32:32;21.30;58.90
48212;DHT22;34000;48.772;9.162;2022-10-14T13:37:34;21.10;59.00
48212;DHT22;34000;48.772;9.162;2022-10-14T13:42:48;21.10;59.40
48212;DHT22;34000;48.772;9.162;2022-10-14T13:45:15;21.00;59.30
48212;DHT22;34000;48.772;9.162;2022-10-14T13:47:46;21.00;59.40
48212;DHT22;34000;48.772;9.162;2022-10-14T13:50:17;20.90;59.40
48212;DHT22;34000;48.772;9.162;2022-10-14T13:52:53;20.90;59.60
48212;DHT22;34000;48.772;9.162;2022-10-14T13:55:21;20.80;59.70
48212;DHT22;34000;48.772;9.162;2022-10-14T13:58:10;20.80;59.80
48212;DHT22;34000;48.772;9.162;2022-10-14T14:00:48;20.80;59.90
48212;DHT22;34000;48.772;9.162;2022-10-14T14:05:50;20.70;59.90
48212;DHT22;34000;48.772;9.162;2022-10-14T14:08:47;20.70;60.00
48212;DHT22;34000;48.772;9.162;2022-10-14T14:11:19;20.60;60.20
48212;DHT22;34000;48.772;9.162;2022-10-14T14:14:10;20.50;60.40
48212;DHT22;34000;48.772;9.162;2022-10-14T14:16:52;20.20;62.30
48212;DHT22;34000;48.772;9.162;2022-10-14T14:19:29;19.80;63.70
48212;DHT22;34000;48.772;9.162;2022-10-14T14:24:42;19.20;66.20
48212;DHT22;34000;48.772;9.162;2022-10-14T14:27:13;19.10;66.70
48212;DHT22;34000;48.772;9.162;2022-10-14T14:29:42;19.10;67.30
48212;DHT22;34000;48.772;9.162;2022-10-14T14:32:14;19.10;67.60
48212;DHT22;34000;48.772;9.162;2022-10-14T14:34:42;19.00;68.40
48212;DHT22;34000;48.772;9.162;2022-10-14T14:37:20;19.00;69.00
48212;DHT22;34000;48.772;9.162;2022-10-14T14:39:59;18.90;69.40
48212;DHT22;34000;48.772;9.162;2022-10-14T14:42:27;18.90;69.80
48212;DHT22;34000;48.772;9.162;2022-10-14T14:45:04;18.90;70.10
48212;DHT22;34000;48.772;9.162;2022-10-14T14:47:31;18.90;70.40
48212;DHT22;34000;48.772;9.162;2022-10-14T14:49:57;18.90;70.60
48212;DHT22;34000;48.772;9.162;2022-10-14T14:52:25;19.00;70.80
48212;DHT22;34000;48.772;9.162;2022-10-14T14:54:51;19.00;70.90
48212;DHT22;34000;48.772;9.162;2022-10-14T14:57:18;19.10;70.90
48212;DHT22;34000;48.772;9.162;2022-10-14T15:00:17;19.10;70.80
48212;DHT22;34000;48.772;9.162;2022-10-14T15:02:43;19.10;70.90
48212;DHT22;34000;48.772;9.162;2022-10-14T15:05:10;19.20;70.80
48212;DHT22;34000;48.772;9.162;2022-10-14T15:07:36;19.20;70.80
48212;DHT22;34000;48.772;9.162;2022-10-14T15:10:05;19.30;70.80
48212;DHT22;34000;48.772;9.162;2022-10-14T15:12:38;19.30;70.80
48212;DHT22;34000;48.772;9.162;2022-10-14T15:15:29;19.30;70.80
48212;DHT22;34000;48.772;9.162;2022-10-14T15:18:20;19.30;70.90
48212;DHT22;34000;48.772;9.162;2022-10-14T15:20:46;19.30;71.00
48212;DHT22;34000;48.772;9.162;2022-10-14T15:23:36;19.30;70.90
48212;DHT22;34000;48.772;9.162;2022-10-14T15:26:02;19.20;71.00
48212;DHT22;34000;48.772;9.162;2022-10-14T15:28:30;19.20;71.60
48212;DHT22;34000;48.772;9.162;2022-10-14T15:30:56;19.20;71.10
48212;DHT22;34000;48.772;9.162;2022-10-14T15:33:23;19.20;71.10
48212;DHT22;34000;48.772;9.162;2022-10-14T15:35:59;19.20;71.20
48212;DHT22;34000;48.772;9.162;2022-10-14T15:38:26;19.20;71.20
48212;DHT22;34000;48.772;9.162;2022-10-14T15:40:52;19.10;71.10
48212;DHT22;34000;48.772;9.162;2022-10-14T15:43:20;19.10;71.20
48212;DHT22;34000;48.772;9.162;2022-10-14T15:45:57;19.10;71.30
48212;DHT22;34000;48.772;9.162;2022-10-14T15:48:47;19.00;71.50
48212;DHT22;34000;48.772;9.162;2022-10-14T15:51:14;19.00;71.60
48212;DHT22;34000;48.772;9.162;2022-10-14T15:53:40;19.00;71.60
48212;DHT22;34000;48.772;9.162;2022-10-14T15:56:06;19.00;71.50
48212;DHT22;34000;48.772;9.162;2022-10-14T15:58:31;19.00;71.70
48212;DHT22;34000;48.772;9.162;2022-10-14T16:00:59;19.00;71.80
48212;DHT22;34000;48.772;9.162;2022-10-14T16:03:25;18.90;72.00
48212;DHT22;34000;48.772;9.162;2022-10-14T16:05:50;18.90;72.10
48212;DHT22;34000;48.772;9.162;2022-10-14T16:08:16;18.80;72.20
48212;DHT22;34000;48.772;9.162;2022-10-14T16:10:43;18.80;72.30
48212;DHT22;34000;48.772;9.162;2022-10-14T16:13:10;18.70;72.40
48212;DHT22;34000;48.772;9.162;2022-10-14T16:15:43;18.70;72.50
48212;DHT22;34000;48.772;9.162;2022-10-14T16:18:10;18.70;72.60
48212;DHT22;34000;48.772;9.162;2022-10-14T16:20:36;18.70;72.60
48212;DHT22;34000;48.772;9.162;2022-10-14T16:23:02;18.70;72.60
48212;DHT22;34000;48.772;9.162;2022-10-14T16:25:35;18.70;72.60
48212;DHT22;34000;48.772;9.162;2022-10-14T16:28:05;18.70;72.80
48212;DHT22;34000;48.772;9.162;2022-10-14T16:30:33;18.70;72.80
48212;DHT22;34000;48.772;9.162;2022-10-14T16:32:59;18.70;72.80
48212;DHT22;34000;48.772;9.162;2022-10-14T16:35:25;18.70;72.80
48212;DHT22;34000;48.772;9.162;2022-10-14T16:37:51;18.70;72.80
48212;DHT22;34000;48.772;9.162;2022-10-14T16:40:17;18.70;72.90
48212;DHT22;34000;48.772;9.162;2022-10-14T16:42:43;18.70;72.90
48212;DHT22;34000;48.772;9.162;2022-10-14T16:45:09;18.70;72.90
48212;DHT22;34000;48.772;9.162;2022-10-14T16:47:35;18.70;72.90
48212;DHT22;34000;48.772;9.162;2022-10-14T16:50:01;18.60;72.90
48212;DHT22;34000;48.772;9.162;2022-10-14T16:52:26;18.70;73.00
48212;DHT22;34000;48.772;9.162;2022-10-14T16:54:52;18.60;72.90
48212;DHT22;34000;48.772;9.162;2022-10-14T16:57:18;18.60;72.90
48212;DHT22;34000;48.772;9.162;2022-10-14T16:59:43;18.60;72.90
48212;DHT22;34000;48.772;9.162;2022-10-14T17:02:14;18.60;73.00
48212;DHT22;34000;48.772;9.162;2022-10-14T17:04:40;18.50;73.10
48212;DHT22;34000;48.772;9.162;2022-10-14T17:07:06;18.50;73.00
48212;DHT22;34000;48.772;9.162;2022-10-14T17:09:36;18.50;73.00
48212;DHT22;34000;48.772;9.162;2022-10-14T17:12:04;18.50;73.10
48212;DHT22;34000;48.772;9.162;2022-10-14T17:14:30;18.50;73.10
48212;DHT22;34000;48.772;9.162;2022-10-14T17:16:59;18.40;73.20
48212;DHT22;34000;48.772;9.162;2022-10-14T17:19:25;18.40;73.90
48212;DHT22;34000;48.772;9.162;2022-10-14T17:21:51;18.30;73.30
48212;DHT22;34000;48.772;9.162;2022-10-14T17:24:17;18.30;73.40
48212;DHT22;34000;48.772;9.162;2022-10-14T17:26:42;18.40;73.60
48212;DHT22;34000;48.772;9.162;2022-10-14T17:29:09;18.30;73.50
48212;DHT22;34000;48.772;9.162;2022-10-14T17:31:34;18.40;73.60
48212;DHT22;34000;48.772;9.162;2022-10-14T17:34:02;18.40;73.70
48212;DHT22;34000;48.772;9.162;2022-10-14T17:36:28;18.40;73.70
48212;DHT22;34000;48.772;9.162;2022-10-14T17:38:56;18.40;73.70
48212;DHT22;34000;48.772;9.162;2022-10-14T17:41:24;18.40;73.70
48212;DHT22;34000;48.772;9.162;2022-10-14T17:43:54;18.40;73.80
48212;DHT22;34000;48.772;9.162;2022-10-14T17:46:22;18.40;73.90